sensor_id;sensor_type;location;lat;lon;timestamp;P1;durP1;ratioP1;P2;durP2;ratioP2
12383;SDS011;6256;63.808;20.336;2024-03-23T00:55:58;0.60;;;0.60;;
12383;SDS011;6256;63.808;20.336;2024-03-23T00:58:24;1.07;;;0.50;;
12383;SDS011;6256;63.808;20.336;2024-03-23T01:00:50;0.60;;;0.50;;
12383;SDS011;6256;63.808;20.336;2024-03-23T01:03:15;0.40;;;0.40;;
12383;SDS011;6256;63.808;20.336;2024-03-23T01:05:41;0.50;;;0.50;;
12383;SDS011;6256;63.808;20.336;2024-03-23T01:08:09;0.53;;;0.53;;
12383;SDS011;6256;63.808;20.336;2024-03-23T01:10:35;0.70;;;0.70;;
12383;SDS011;6256;63.808;20.336;2024-03-23T01:13:01;0.40;;;0.40;;
12383;SDS011;6256;63.808;20.336;2024-03-23T01:15:26;0.40;;;0.40;;
12383;SDS011;6256;63.808;20.336;2024-03-23T01:17:52;0.30;;;0.30;;
12383;SDS011;6256;63.808;20.336;2024-03-23T01:20:18;0.80;;;0.80;;
12383;SDS011;6256;63.808;20.336;2024-03-23T01:22:44;0.40;;;0.40;;
12383;SDS011;6256;63.808;20.336;2024-03-23T01:25:09;0.30;;;0.30;;
12383;SDS011;6256;63.808;20.336;2024-03-23T01:27:35;0.77;;;0.77;;
12383;SDS011;6256;63.808;20.336;2024-03-23T01:30:01;0.43;;;0.43;;
12383;SDS011;6256;63.808;20.336;2024-03-23T01:32:26;0.40;;;0.40;;
12383;SDS011;6256;63.808;20.336;2024-03-23T01:34:52;0.30;;;0.30;;
12383;SDS011;6256;63.808;20.336;2024-03-23T01:37:18;0.40;;;0.40;;
12383;SDS011;6256;63.808;20.336;2024-03-23T01:39:44;0.40;;;0.40;;
12383;SDS011;6256;63.808;20.336;2024-03-23T01:42:09;0.33;;;0.33;;
12383;SDS011;6256;63.808;20.336;2024-03-23T01:44:35;0.40;;;0.40;;
12383;SDS011;6256;63.808;20.336;2024-03-23T01:47:01;0.20;;;0.20;;
12383;SDS011;6256;63.808;20.336;2024-03-23T01:49:27;0.40;;;0.40;;
12383;SDS011;6256;63.808;20.336;2024-03-23T01:51:53;0.57;;;0.50;;
12383;SDS011;6256;63.808;20.336;2024-03-23T01:54:18;0.40;;;0.40;;
12383;SDS011;6256;63.808;20.336;2024-03-23T01:56:44;0.50;;;0.50;;
12383;SDS011;6256;63.808;20.336;2024-03-23T01:59:10;0.30;;;0.30;;
12383;SDS011;6256;63.808;20.336;2024-03-23T02:01:36;0.40;;;0.40;;
12383;SDS011;6256;63.808;20.336;2024-03-23T02:04:01;0.40;;;0.40;;
12383;SDS011;6256;63.808;20.336;2024-03-23T02:06:27;0.30;;;0.30;;
12383;SDS011;6256;63.808;20.336;2024-03-23T02:08:54;0.30;;;0.30;;
12383;SDS011;6256;63.808;20.336;2024-03-23T02:11:20;0.37;;;0.37;;
12383;SDS011;6256;63.808;20.336;2024-03-23T02:13:46;0.27;;;0.27;;
12383;SDS011;6256;63.808;20.336;2024-03-23T02:16:11;0.30;;;0.30;;
12383;SDS011;6256;63.808;20.336;2024-03-23T02:18:38;0.40;;;0.40;;
12383;SDS011;6256;63.808;20.336;2024-03-23T02:21:04;0.77;;;0.77;;
12383;SDS011;6256;63.808;20.336;2024-03-23T02:23:30;0.40;;;0.40;;
12383;SDS011;6256;63.808;20.336;2024-03-23T02:25:55;0.30;;;0.30;;
12383;SDS011;6256;63.808;20.336;2024-03-23T02:28:21;0.40;;;0.40;;
12383;SDS011;6256;63.808;20.336;2024-03-23T02:30:50;0.30;;;0.30;;
12383;SDS011;6256;63.808;20.336;2024-03-23T02:33:16;0.30;;;0.30;;
12383;SDS011;6256;63.808;20.336;2024-03-23T02:35:42;0.30;;;0.30;;
12383;SDS011;6256;63.808;20.336;2024-03-23T02:38:10;0.40;;;0.40;;
12383;SDS011;6256;63.808;20.336;2024-03-23T02:40:36;0.40;;;0.40;;
12383;SDS011;6256;63.808;20.336;2024-03-23T02:43:02;0.40;;;0.40;;
12383;SDS011;6256;63.808;20.336;2024-03-23T02:45:28;0.47;;;0.47;;
12383;SDS011;6256;63.808;20.336;2024-03-23T02:47:54;0.50;;;0.30;;
12383;SDS011;6256;63.808;20.336;2024-03-23T02:50:20;0.37;;;0.33;;
12383;SDS011;6256;63.808;20.336;2024-03-23T02:52:46;0.33;;;0.33;;
12383;SDS011;6256;63.808;20.336;2024-03-23T02:55:12;0.30;;;0.30;;
12383;SDS011;6256;63.808;20.336;2024-03-23T02:57:38;0.30;;;0.30;;
12383;SDS011;6256;63.808;20.336;2024-03-23T03:00:04;0.40;;;0.40;;
12383;SDS011;6256;63.808;20.336;2024-03-23T03:02:31;0.30;;;0.30;;
12383;SDS011;6256;63.808;20.336;2024-03-23T03:04:57;0.30;;;0.30;;
12383;SDS011;6256;63.808;20.336;2024-03-23T03:07:23;0.30;;;0.30;;
12383;SDS011;6256;63.808;20.336;2024-03-23T03:09:48;0.30;;;0.30;;
12383;SDS011;6256;63.808;20.336;2024-03-23T03:12:14;0.50;;;0.50;;
12383;SDS011;6256;63.808;20.336;2024-03-23T03:14:39;0.40;;;0.40;;
12383;SDS011;6256;63.808;20.336;2024-03-23T03:17:05;0.40;;;0.40;;
12383;SDS011;6256;63.808;20.336;2024-03-23T03:19:31;0.33;;;0.33;;
12383;SDS011;6256;63.808;20.336;2024-03-23T03:21:57;0.30;;;0.30;;
12383;SDS011;6256;63.808;20.336;2024-03-23T03:24:23;0.30;;;0.30;;
12383;SDS011;6256;63.808;20.336;2024-03-23T03:26:49;0.40;;;0.40;;
12383;SDS011;6256;63.808;20.336;2024-03-23T03:29:15;0.33;;;0.33;;
12383;SDS011;6256;63.808;20.336;2024-03-23T03:31:41;0.20;;;0.20;;
12383;SDS011;6256;63.808;20.336;2024-03-23T03:34:09;0.30;;;0.30;;
12383;SDS011;6256;63.808;20.336;2024-03-23T03:36:35;0.33;;;0.33;;
12383;SDS011;6256;63.808;20.336;2024-03-23T03:39:01;0.40;;;0.40;;
12383;SDS011;6256;63.808;20.336;2024-03-23T03:41:28;0.37;;;0.37;;
12383;SDS011;6256;63.808;20.336;2024-03-23T03:43:54;0.37;;;0.37;;
12383;SDS011;6256;63.808;20.336;2024-03-23T03:46:20;0.30;;;0.30;;
12383;SDS011;6256;63.808;20.336;2024-03-23T03:48:46;0.30;;;0.30;;
12383;SDS011;6256;63.808;20.336;2024-03-23T03:51:13;0.30;;;0.30;;
12383;SDS011;6256;63.808;20.336;2024-03-23T03:53:39;0.30;;;0.30;;
12383;SDS011;6256;63.808;20.336;2024-03-23T03:56:04;0.37;;;0.37;;
12383;SDS011;6256;63.808;20.336;2024-03-23T03:58:30;0.40;;;0.40;;
12383;SDS011;6256;63.808;20.336;2024-03-23T04:00:56;0.40;;;0.40;;
12383;SDS011;6256;63.808;20.336;2024-03-23T04:03:21;0.30;;;0.30;;
12383;SDS011;6256;63.808;20.336;2024-03-23T04:05:53;0.30;;;0.30;;
12383;SDS011;6256;63.808;20.336;2024-03-23T04:08:19;0.40;;;0.40;;
12383;SDS011;6256;63.808;20.336;2024-03-23T04:10:45;0.30;;;0.30;;
12383;SDS011;6256;63.808;20.336;2024-03-23T04:13:11;0.50;;;0.50;;
12383;SDS011;6256;63.808;20.336;2024-03-23T04:15:41;0.27;;;0.27;;
12383;SDS011;6256;63.808;20.336;2024-03-23T04:18:07;0.20;;;0.20;;
12383;SDS011;6256;63.808;20.336;2024-03-23T04:20:33;0.33;;;0.33;;
12383;SDS011;6256;63.808;20.336;2024-03-23T04:22:59;0.30;;;0.30;;
12383;SDS011;6256;63.808;20.336;2024-03-23T04:25:25;0.40;;;0.40;;
12383;SDS011;6256;63.808;20.336;2024-03-23T04:27:50;0.20;;;0.20;;
12383;SDS011;6256;63.808;20.336;2024-03-23T04:30:16;0.40;;;0.40;;
12383;SDS011;6256;63.808;20.336;2024-03-23T04:32:42;0.20;;;0.20;;
12383;SDS011;6256;63.808;20.336;2024-03-23T04:35:08;0.40;;;0.40;;
12383;SDS011;6256;63.808;20.336;2024-03-23T04:37:38;0.30;;;0.30;;
12383;SDS011;6256;63.808;20.336;2024-03-23T04:40:10;0.30;;;0.30;;
12383;SDS011;6256;63.808;20.336;2024-03-23T04:42:36;0.37;;;0.37;;
12383;SDS011;6256;63.808;20.336;2024-03-23T04:45:03;0.30;;;0.30;;
12383;SDS011;6256;63.808;20.336;2024-03-23T04:47:31;0.33;;;0.33;;
12383;SDS011;6256;63.808;20.336;2024-03-23T04:49:56;0.20;;;0.20;;
12383;SDS011;6256;63.808;20.336;2024-03-23T04:52:22;0.20;;;0.20;;
12383;SDS011;6256;63.808;20.336;2024-03-23T04:54:48;0.40;;;0.40;;
12383;SDS011;6256;63.808;20.336;2024-03-23T04:57:13;0.30;;;0.30;;
12383;SDS011;6256;63.808;20.336;2024-03-23T04:59:39;0.27;;;0.27;;
12383;SDS011;6256;63.808;20.336;2024-03-23T05:02:05;0.30;;;0.30;;
12383;SDS011;6256;63.808;20.336;2024-03-23T05:04:30;0.23;;;0.23;;
12383;SDS011;6256;63.808;20.336;2024-03-23T05:06:57;0.40;;;0.40;;
12383;SDS011;6256;63.808;20.336;2024-03-23T05:09:23;0.30;;;0.30;;
12383;SDS011;6256;63.808;20.336;2024-03-23T05:11:48;0.30;;;0.30;;
12383;SDS011;6256;63.808;20.336;2024-03-23T05:14:15;0.30;;;0.30;;
12383;SDS011;6256;63.808;20.336;2024-03-23T05:16:41;0.30;;;0.30;;
12383;SDS011;6256;63.808;20.336;2024-03-23T05:19:07;0.30;;;0.30;;
12383;SDS011;6256;63.808;20.336;2024-03-23T05:21:33;0.20;;;0.20;;
12383;SDS011;6256;63.808;20.336;2024-03-23T05:23:58;0.37;;;0.37;;
12383;SDS011;6256;63.808;20.336;2024-03-23T05:26:24;0.30;;;0.30;;
12383;SDS011;6256;63.808;20.336;2024-03-23T05:28:50;0.30;;;0.30;;
12383;SDS011;6256;63.808;20.336;2024-03-23T05:31:28;0.40;;;0.40;;
12383;SDS011;6256;63.808;20.336;2024-03-23T05:33:55;0.30;;;0.30;;
12383;SDS011;6256;63.808;20.336;2024-03-23T05:36:21;0.30;;;0.30;;
12383;SDS011;6256;63.808;20.336;2024-03-23T05:38:48;0.30;;;0.30;;
12383;SDS011;6256;63.808;20.336;2024-03-23T05:41:14;0.40;;;0.40;;
12383;SDS011;6256;63.808;20.336;2024-03-23T05:43:40;0.30;;;0.30;;
12383;SDS011;6256;63.808;20.336;2024-03-23T05:46:05;0.30;;;0.30;;
12383;SDS011;6256;63.808;20.336;2024-03-23T05:48:32;0.30;;;0.30;;
12383;SDS011;6256;63.808;20.336;2024-03-23T05:50:58;0.50;;;0.50;;
12383;SDS011;6256;63.808;20.336;2024-03-23T05:53:24;0.30;;;0.30;;
12383;SDS011;6256;63.808;20.336;2024-03-23T05:55:50;0.30;;;0.30;;
12383;SDS011;6256;63.808;20.336;2024-03-23T05:58:18;0.30;;;0.30;;
12383;SDS011;6256;63.808;20.336;2024-03-23T06:00:45;0.20;;;0.20;;
12383;SDS011;6256;63.808;20.336;2024-03-23T06:03:11;0.20;;;0.20;;
12383;SDS011;6256;63.808;20.336;2024-03-23T06:05:37;0.40;;;0.40;;
12383;SDS011;6256;63.808;20.336;2024-03-23T06:08:04;0.30;;;0.30;;
12383;SDS011;6256;63.808;20.336;2024-03-23T06:10:30;0.40;;;0.40;;
12383;SDS011;6256;63.808;20.336;2024-03-23T06:12:56;0.30;;;0.30;;
12383;SDS011;6256;63.808;20.336;2024-03-23T06:15:23;0.30;;;0.30;;
12383;SDS011;6256;63.808;20.336;2024-03-23T06:17:49;0.40;;;0.40;;
12383;SDS011;6256;63.808;20.336;2024-03-23T06:20:15;0.43;;;0.43;;
12383;SDS011;6256;63.808;20.336;2024-03-23T06:22:41;0.30;;;0.30;;
12383;SDS011;6256;63.808;20.336;2024-03-23T06:25:09;0.30;;;0.30;;
12383;SDS011;6256;63.808;20.336;2024-03-23T06:27:37;0.40;;;0.40;;
12383;SDS011;6256;63.808;20.336;2024-03-23T06:30:04;0.30;;;0.30;;
12383;SDS011;6256;63.808;20.336;2024-03-23T06:32:30;0.40;;;0.40;;
12383;SDS011;6256;63.808;20.336;2024-03-23T06:34:56;0.30;;;0.30;;
12383;SDS011;6256;63.808;20.336;2024-03-23T06:37:21;0.30;;;0.30;;
12383;SDS011;6256;63.808;20.336;2024-03-23T06:39:47;0.40;;;0.40;;
12383;SDS011;6256;63.808;20.336;2024-03-23T06:42:13;0.30;;;0.30;;
12383;SDS011;6256;63.808;20.336;2024-03-23T06:44:39;0.30;;;0.30;;
12383;SDS011;6256;63.808;20.336;2024-03-23T06:47:05;0.30;;;0.30;;
12383;SDS011;6256;63.808;20.336;2024-03-23T06:49:31;0.40;;;0.40;;
12383;SDS011;6256;63.808;20.336;2024-03-23T06:51:56;0.30;;;0.30;;
12383;SDS011;6256;63.808;20.336;2024-03-23T06:54:22;0.20;;;0.20;;
12383;SDS011;6256;63.808;20.336;2024-03-23T06:56:49;0.30;;;0.30;;
12383;SDS011;6256;63.808;20.336;2024-03-23T06:59:15;0.20;;;0.20;;
12383;SDS011;6256;63.808;20.336;2024-03-23T07:01:41;0.40;;;0.40;;
12383;SDS011;6256;63.808;20.336;2024-03-23T07:04:10;0.30;;;0.30;;
12383;SDS011;6256;63.808;20.336;2024-03-23T07:06:41;0.30;;;0.30;;
12383;SDS011;6256;63.808;20.336;2024-03-23T07:09:09;0.30;;;0.30;;
12383;SDS011;6256;63.808;20.336;2024-03-23T07:11:34;0.30;;;0.30;;
12383;SDS011;6256;63.808;20.336;2024-03-23T07:14:00;0.30;;;0.30;;
12383;SDS011;6256;63.808;20.336;2024-03-23T07:16:29;0.30;;;0.30;;
12383;SDS011;6256;63.808;20.336;2024-03-23T07:18:55;0.20;;;0.20;;
12383;SDS011;6256;63.808;20.336;2024-03-23T07:21:21;0.30;;;0.30;;
12383;SDS011;6256;63.808;20.336;2024-03-23T07:23:47;0.40;;;0.40;;
12383;SDS011;6256;63.808;20.336;2024-03-23T07:26:13;0.40;;;0.40;;
12383;SDS011;6256;63.808;20.336;2024-03-23T07:28:38;0.37;;;0.37;;
12383;SDS011;6256;63.808;20.336;2024-03-23T07:31:09;0.40;;;0.40;;
12383;SDS011;6256;63.808;20.336;2024-03-23T07:33:46;0.30;;;0.30;;
12383;SDS011;6256;63.808;20.336;2024-03-23T07:36:12;0.40;;;0.40;;
12383;SDS011;6256;63.808;20.336;2024-03-23T07:38:41;0.50;;;0.50;;
12383;SDS011;6256;63.808;20.336;2024-03-23T07:41:10;0.30;;;0.30;;
12383;SDS011;6256;63.808;20.336;2024-03-23T07:43:38;0.20;;;0.20;;
12383;SDS011;6256;63.808;20.336;2024-03-23T07:46:04;0.40;;;0.40;;
12383;SDS011;6256;63.808;20.336;2024-03-23T07:48:30;0.33;;;0.33;;
12383;SDS011;6256;63.808;20.336;2024-03-23T07:50:57;0.40;;;0.40;;
12383;SDS011;6256;63.808;20.336;2024-03-23T07:53:26;0.40;;;0.40;;
12383;SDS011;6256;63.808;20.336;2024-03-23T07:55:55;0.40;;;0.40;;
12383;SDS011;6256;63.808;20.336;2024-03-23T07:58:26;0.57;;;0.57;;
12383;SDS011;6256;63.808;20.336;2024-03-23T08:00:53;0.40;;;0.40;;
12383;SDS011;6256;63.808;20.336;2024-03-23T08:03:19;0.30;;;0.30;;
12383;SDS011;6256;63.808;20.336;2024-03-23T08:05:45;0.23;;;0.23;;
12383;SDS011;6256;63.808;20.336;2024-03-23T08:08:10;0.40;;;0.40;;
12383;SDS011;6256;63.808;20.336;2024-03-23T08:10:37;0.30;;;0.30;;
12383;SDS011;6256;63.808;20.336;2024-03-23T08:13:12;0.40;;;0.40;;
12383;SDS011;6256;63.808;20.336;2024-03-23T08:15:37;0.43;;;0.43;;
12383;SDS011;6256;63.808;20.336;2024-03-23T08:18:03;0.40;;;0.40;;
12383;SDS011;6256;63.808;20.336;2024-03-23T08:20:29;0.40;;;0.40;;
12383;SDS011;6256;63.808;20.336;2024-03-23T08:22:55;0.40;;;0.40;;
12383;SDS011;6256;63.808;20.336;2024-03-23T08:25:21;0.60;;;0.60;;
12383;SDS011;6256;63.808;20.336;2024-03-23T08:27:46;0.53;;;0.53;;
12383;SDS011;6256;63.808;20.336;2024-03-23T08:30:12;0.50;;;0.50;;
12383;SDS011;6256;63.808;20.336;2024-03-23T08:32:38;0.47;;;0.47;;
12383;SDS011;6256;63.808;20.336;2024-03-23T08:35:04;0.50;;;0.50;;
12383;SDS011;6256;63.808;20.336;2024-03-23T08:37:30;0.63;;;0.63;;
12383;SDS011;6256;63.808;20.336;2024-03-23T08:39:56;1.07;;;0.60;;
12383;SDS011;6256;63.808;20.336;2024-03-23T08:42:21;0.80;;;0.70;;
12383;SDS011;6256;63.808;20.336;2024-03-23T08:44:47;0.40;;;0.40;;
12383;SDS011;6256;63.808;20.336;2024-03-23T08:47:15;1.00;;;0.50;;
12383;SDS011;6256;63.808;20.336;2024-03-23T08:49:41;3.50;;;0.97;;
12383;SDS011;6256;63.808;20.336;2024-03-23T08:52:07;0.70;;;0.70;;
12383;SDS011;6256;63.808;20.336;2024-03-23T08:54:33;0.53;;;0.53;;
12383;SDS011;6256;63.808;20.336;2024-03-23T08:56:59;0.70;;;0.70;;
12383;SDS011;6256;63.808;20.336;2024-03-23T08:59:25;0.40;;;0.40;;
12383;SDS011;6256;63.808;20.336;2024-03-23T09:01:50;0.60;;;0.60;;
12383;SDS011;6256;63.808;20.336;2024-03-23T09:04:16;0.80;;;0.70;;
12383;SDS011;6256;63.808;20.336;2024-03-23T09:06:42;0.50;;;0.50;;
12383;SDS011;6256;63.808;20.336;2024-03-23T09:09:08;0.53;;;0.53;;
12383;SDS011;6256;63.808;20.336;2024-03-23T09:11:34;0.60;;;0.60;;
12383;SDS011;6256;63.808;20.336;2024-03-23T09:14:00;0.40;;;0.40;;
12383;SDS011;6256;63.808;20.336;2024-03-23T09:16:25;0.80;;;0.80;;
12383;SDS011;6256;63.808;20.336;2024-03-23T09:18:51;0.70;;;0.70;;
12383;SDS011;6256;63.808;20.336;2024-03-23T09:21:17;0.60;;;0.60;;
12383;SDS011;6256;63.808;20.336;2024-03-23T09:23:44;2.60;;;0.70;;
12383;SDS011;6256;63.808;20.336;2024-03-23T09:26:10;0.53;;;0.53;;
12383;SDS011;6256;63.808;20.336;2024-03-23T09:28:36;0.70;;;0.70;;
12383;SDS011;6256;63.808;20.336;2024-03-23T09:31:03;0.50;;;0.50;;
12383;SDS011;6256;63.808;20.336;2024-03-23T09:33:29;1.00;;;0.87;;
12383;SDS011;6256;63.808;20.336;2024-03-23T09:35:55;0.90;;;0.80;;
12383;SDS011;6256;63.808;20.336;2024-03-23T09:38:21;1.10;;;1.10;;
12383;SDS011;6256;63.808;20.336;2024-03-23T09:40:52;0.83;;;0.60;;
12383;SDS011;6256;63.808;20.336;2024-03-23T09:43:18;1.33;;;0.80;;
12383;SDS011;6256;63.808;20.336;2024-03-23T09:45:44;0.73;;;0.73;;
12383;SDS011;6256;63.808;20.336;2024-03-23T09:48:11;1.00;;;0.93;;
12383;SDS011;6256;63.808;20.336;2024-03-23T09:50:38;0.70;;;0.70;;
12383;SDS011;6256;63.808;20.336;2024-03-23T09:53:06;0.70;;;0.70;;
12383;SDS011;6256;63.808;20.336;2024-03-23T09:55:32;0.73;;;0.73;;
12383;SDS011;6256;63.808;20.336;2024-03-23T09:58:00;0.60;;;0.60;;
12383;SDS011;6256;63.808;20.336;2024-03-23T10:00:26;0.80;;;0.80;;
12383;SDS011;6256;63.808;20.336;2024-03-23T10:02:54;0.60;;;0.60;;
12383;SDS011;6256;63.808;20.336;2024-03-23T10:05:21;0.67;;;0.67;;
12383;SDS011;6256;63.808;20.336;2024-03-23T10:07:50;0.83;;;0.83;;
12383;SDS011;6256;63.808;20.336;2024-03-23T10:10:16;0.70;;;0.70;;
12383;SDS011;6256;63.808;20.336;2024-03-23T10:12:46;0.70;;;0.70;;
12383;SDS011;6256;63.808;20.336;2024-03-23T10:15:18;0.90;;;0.90;;
12383;SDS011;6256;63.808;20.336;2024-03-23T10:17:49;0.80;;;0.80;;
12383;SDS011;6256;63.808;20.336;2024-03-23T10:20:19;1.67;;;0.70;;
12383;SDS011;6256;63.808;20.336;2024-03-23T10:22:47;0.73;;;0.73;;
12383;SDS011;6256;63.808;20.336;2024-03-23T10:25:13;1.07;;;0.83;;
12383;SDS011;6256;63.808;20.336;2024-03-23T10:27:39;0.80;;;0.80;;
12383;SDS011;6256;63.808;20.336;2024-03-23T10:32:34;0.73;;;0.73;;
12383;SDS011;6256;63.808;20.336;2024-03-23T10:35:21;0.60;;;0.60;;
12383;SDS011;6256;63.808;20.336;2024-03-23T10:37:47;0.67;;;0.67;;
12383;SDS011;6256;63.808;20.336;2024-03-23T10:40:16;1.10;;;1.00;;
12383;SDS011;6256;63.808;20.336;2024-03-23T10:42:43;0.80;;;0.80;;
12383;SDS011;6256;63.808;20.336;2024-03-23T10:45:09;1.43;;;1.00;;
12383;SDS011;6256;63.808;20.336;2024-03-23T10:47:36;1.13;;;0.90;;
12383;SDS011;6256;63.808;20.336;2024-03-23T10:50:05;0.60;;;0.60;;
12383;SDS011;6256;63.808;20.336;2024-03-23T10:52:37;1.90;;;1.33;;
12383;SDS011;6256;63.808;20.336;2024-03-23T10:55:04;1.37;;;1.23;;
12383;SDS011;6256;63.808;20.336;2024-03-23T10:57:40;1.17;;;0.90;;
12383;SDS011;6256;63.808;20.336;2024-03-23T11:00:09;1.13;;;0.93;;
12383;SDS011;6256;63.808;20.336;2024-03-23T11:02:36;0.93;;;0.87;;
12383;SDS011;6256;63.808;20.336;2024-03-23T11:05:02;0.80;;;0.80;;
12383;SDS011;6256;63.808;20.336;2024-03-23T11:07:52;1.10;;;1.00;;
12383;SDS011;6256;63.808;20.336;2024-03-23T11:10:28;1.07;;;0.97;;
12383;SDS011;6256;63.808;20.336;2024-03-23T11:12:58;0.70;;;0.70;;
12383;SDS011;6256;63.808;20.336;2024-03-23T11:15:42;1.00;;;0.80;;
12383;SDS011;6256;63.808;20.336;2024-03-23T11:18:08;0.77;;;0.77;;
12383;SDS011;6256;63.808;20.336;2024-03-23T11:20:34;1.43;;;1.10;;
12383;SDS011;6256;63.808;20.336;2024-03-23T11:23:00;1.83;;;0.90;;
12383;SDS011;6256;63.808;20.336;2024-03-23T11:25:27;1.00;;;1.00;;
12383;SDS011;6256;63.808;20.336;2024-03-23T11:30:26;0.80;;;0.80;;
12383;SDS011;6256;63.808;20.336;2024-03-23T11:32:56;1.67;;;1.03;;
12383;SDS011;6256;63.808;20.336;2024-03-23T11:35:30;0.90;;;0.90;;
12383;SDS011;6256;63.808;20.336;2024-03-23T11:40:43;0.63;;;0.63;;
12383;SDS011;6256;63.808;20.336;2024-03-23T11:43:17;0.80;;;0.80;;
12383;SDS011;6256;63.808;20.336;2024-03-23T11:45:45;0.97;;;0.97;;
12383;SDS011;6256;63.808;20.336;2024-03-23T11:48:18;2.10;;;1.90;;
12383;SDS011;6256;63.808;20.336;2024-03-23T11:50:46;1.40;;;0.97;;
12383;SDS011;6256;63.808;20.336;2024-03-23T11:58:14;1.87;;;1.40;;
12383;SDS011;6256;63.808;20.336;2024-03-23T12:00:41;1.63;;;1.37;;
12383;SDS011;6256;63.808;20.336;2024-03-23T12:03:08;0.93;;;0.93;;
12383;SDS011;6256;63.808;20.336;2024-03-23T12:05:35;0.87;;;0.80;;
12383;SDS011;6256;63.808;20.336;2024-03-23T12:08:17;2.27;;;1.00;;
12383;SDS011;6256;63.808;20.336;2024-03-23T12:10:44;0.70;;;0.70;;
12383;SDS011;6256;63.808;20.336;2024-03-23T12:13:14;1.37;;;0.90;;
12383;SDS011;6256;63.808;20.336;2024-03-23T12:15:42;1.17;;;1.07;;
12383;SDS011;6256;63.808;20.336;2024-03-23T12:18:08;1.37;;;0.97;;
12383;SDS011;6256;63.808;20.336;2024-03-23T12:20:35;0.90;;;0.90;;
12383;SDS011;6256;63.808;20.336;2024-03-23T12:23:06;0.83;;;0.83;;
12383;SDS011;6256;63.808;20.336;2024-03-23T12:25:32;0.70;;;0.70;;
12383;SDS011;6256;63.808;20.336;2024-03-23T12:27:58;0.70;;;0.70;;
12383;SDS011;6256;63.808;20.336;2024-03-23T12:30:24;1.00;;;0.97;;
12383;SDS011;6256;63.808;20.336;2024-03-23T12:32:50;0.70;;;0.70;;
12383;SDS011;6256;63.808;20.336;2024-03-23T12:35:16;1.00;;;0.87;;
12383;SDS011;6256;63.808;20.336;2024-03-23T12:37:41;0.73;;;0.73;;
12383;SDS011;6256;63.808;20.336;2024-03-23T12:40:08;0.93;;;0.93;;
12383;SDS011;6256;63.808;20.336;2024-03-23T12:42:34;0.90;;;0.90;;
12383;SDS011;6256;63.808;20.336;2024-03-23T12:45:00;1.10;;;1.00;;
12383;SDS011;6256;63.808;20.336;2024-03-23T12:47:26;0.80;;;0.80;;
12383;SDS011;6256;63.808;20.336;2024-03-23T12:49:52;1.10;;;1.00;;
12383;SDS011;6256;63.808;20.336;2024-03-23T12:52:17;1.57;;;0.90;;
12383;SDS011;6256;63.808;20.336;2024-03-23T12:54:45;0.60;;;0.60;;
12383;SDS011;6256;63.808;20.336;2024-03-23T12:57:10;0.70;;;0.70;;
12383;SDS011;6256;63.808;20.336;2024-03-23T12:59:36;0.90;;;0.90;;
12383;SDS011;6256;63.808;20.336;2024-03-23T13:02:02;0.90;;;0.90;;
12383;SDS011;6256;63.808;20.336;2024-03-23T13:04:28;0.80;;;0.80;;
12383;SDS011;6256;63.808;20.336;2024-03-23T13:06:53;0.80;;;0.80;;
12383;SDS011;6256;63.808;20.336;2024-03-23T13:09:19;0.80;;;0.80;;
12383;SDS011;6256;63.808;20.336;2024-03-23T13:11:45;0.80;;;0.80;;
12383;SDS011;6256;63.808;20.336;2024-03-23T13:14:10;0.70;;;0.70;;
12383;SDS011;6256;63.808;20.336;2024-03-23T13:16:36;0.73;;;0.73;;
12383;SDS011;6256;63.808;20.336;2024-03-23T13:19:02;1.07;;;0.90;;
12383;SDS011;6256;63.808;20.336;2024-03-23T13:21:28;0.70;;;0.70;;
12383;SDS011;6256;63.808;20.336;2024-03-23T13:23:54;0.70;;;0.70;;
12383;SDS011;6256;63.808;20.336;2024-03-23T13:26:20;0.93;;;0.73;;
12383;SDS011;6256;63.808;20.336;2024-03-23T13:28:45;0.60;;;0.60;;
12383;SDS011;6256;63.808;20.336;2024-03-23T13:31:11;1.03;;;0.97;;
12383;SDS011;6256;63.808;20.336;2024-03-23T13:33:37;1.17;;;0.80;;
12383;SDS011;6256;63.808;20.336;2024-03-23T13:36:03;1.10;;;1.00;;
12383;SDS011;6256;63.808;20.336;2024-03-23T13:38:28;1.50;;;0.77;;
12383;SDS011;6256;63.808;20.336;2024-03-23T13:43:25;0.73;;;0.73;;
12383;SDS011;6256;63.808;20.336;2024-03-23T13:45:55;0.40;;;0.40;;
12383;SDS011;6256;63.808;20.336;2024-03-23T13:48:26;0.93;;;0.80;;
12383;SDS011;6256;63.808;20.336;2024-03-23T13:51:04;0.70;;;0.70;;
12383;SDS011;6256;63.808;20.336;2024-03-23T13:53:30;0.70;;;0.70;;
12383;SDS011;6256;63.808;20.336;2024-03-23T13:55:59;0.90;;;0.90;;
12383;SDS011;6256;63.808;20.336;2024-03-23T13:58:25;0.80;;;0.80;;
12383;SDS011;6256;63.808;20.336;2024-03-23T14:00:50;0.73;;;0.73;;
12383;SDS011;6256;63.808;20.336;2024-03-23T14:03:16;1.70;;;1.10;;
12383;SDS011;6256;63.808;20.336;2024-03-23T14:05:43;0.73;;;0.73;;
12383;SDS011;6256;63.808;20.336;2024-03-23T14:08:10;2.47;;;0.80;;
12383;SDS011;6256;63.808;20.336;2024-03-23T14:10:36;0.90;;;0.80;;
12383;SDS011;6256;63.808;20.336;2024-03-23T14:13:05;1.40;;;0.97;;
12383;SDS011;6256;63.808;20.336;2024-03-23T14:15:31;1.13;;;0.93;;
12383;SDS011;6256;63.808;20.336;2024-03-23T14:17:57;0.83;;;0.83;;
12383;SDS011;6256;63.808;20.336;2024-03-23T14:20:23;1.40;;;1.30;;
12383;SDS011;6256;63.808;20.336;2024-03-23T14:22:49;2.23;;;0.97;;
12383;SDS011;6256;63.808;20.336;2024-03-23T14:25:16;1.07;;;0.87;;
12383;SDS011;6256;63.808;20.336;2024-03-23T14:27:45;0.57;;;0.57;;
12383;SDS011;6256;63.808;20.336;2024-03-23T14:30:12;0.90;;;0.90;;
12383;SDS011;6256;63.808;20.336;2024-03-23T14:32:39;0.73;;;0.73;;
12383;SDS011;6256;63.808;20.336;2024-03-23T14:35:05;0.70;;;0.70;;
12383;SDS011;6256;63.808;20.336;2024-03-23T14:37:38;1.07;;;0.93;;
12383;SDS011;6256;63.808;20.336;2024-03-23T14:40:07;0.50;;;0.50;;
12383;SDS011;6256;63.808;20.336;2024-03-23T14:42:33;0.70;;;0.70;;
12383;SDS011;6256;63.808;20.336;2024-03-23T14:44:59;1.10;;;0.70;;
12383;SDS011;6256;63.808;20.336;2024-03-23T14:47:25;0.73;;;0.73;;
12383;SDS011;6256;63.808;20.336;2024-03-23T14:49:51;1.03;;;0.97;;
12383;SDS011;6256;63.808;20.336;2024-03-23T14:52:17;2.93;;;1.13;;
12383;SDS011;6256;63.808;20.336;2024-03-23T14:54:43;0.70;;;0.70;;
12383;SDS011;6256;63.808;20.336;2024-03-23T14:57:09;0.93;;;0.90;;
12383;SDS011;6256;63.808;20.336;2024-03-23T14:59:35;1.00;;;0.90;;
12383;SDS011;6256;63.808;20.336;2024-03-23T15:02:03;0.60;;;0.60;;
12383;SDS011;6256;63.808;20.336;2024-03-23T15:04:29;0.73;;;0.73;;
12383;SDS011;6256;63.808;20.336;2024-03-23T15:06:55;1.20;;;0.83;;
12383;SDS011;6256;63.808;20.336;2024-03-23T15:09:21;0.67;;;0.67;;
12383;SDS011;6256;63.808;20.336;2024-03-23T15:11:46;1.50;;;0.57;;
12383;SDS011;6256;63.808;20.336;2024-03-23T15:14:12;0.77;;;0.70;;
12383;SDS011;6256;63.808;20.336;2024-03-23T15:16:38;2.50;;;0.70;;
12383;SDS011;6256;63.808;20.336;2024-03-23T15:19:03;0.70;;;0.70;;
12383;SDS011;6256;63.808;20.336;2024-03-23T15:21:31;0.63;;;0.63;;
12383;SDS011;6256;63.808;20.336;2024-03-23T15:23:57;1.33;;;0.80;;
12383;SDS011;6256;63.808;20.336;2024-03-23T15:26:23;0.50;;;0.50;;
12383;SDS011;6256;63.808;20.336;2024-03-23T15:28:49;0.53;;;0.53;;
12383;SDS011;6256;63.808;20.336;2024-03-23T15:31:23;0.77;;;0.77;;
12383;SDS011;6256;63.808;20.336;2024-03-23T15:33:50;0.60;;;0.60;;
12383;SDS011;6256;63.808;20.336;2024-03-23T15:36:16;0.60;;;0.50;;
12383;SDS011;6256;63.808;20.336;2024-03-23T15:38:42;0.70;;;0.60;;
12383;SDS011;6256;63.808;20.336;2024-03-23T15:41:08;1.77;;;0.90;;
12383;SDS011;6256;63.808;20.336;2024-03-23T15:43:34;0.70;;;0.70;;
12383;SDS011;6256;63.808;20.336;2024-03-23T15:46:01;0.77;;;0.77;;
12383;SDS011;6256;63.808;20.336;2024-03-23T15:48:28;0.30;;;0.30;;
12383;SDS011;6256;63.808;20.336;2024-03-23T15:50:59;0.70;;;0.70;;
12383;SDS011;6256;63.808;20.336;2024-03-23T15:53:26;0.83;;;0.73;;
12383;SDS011;6256;63.808;20.336;2024-03-23T15:55:59;0.63;;;0.60;;